Time;durP1;ratioP1;P1;durP2;ratioP2;P2;SDS_P1;SDS_P2;PMS_P1;PMS_P2;Temp;Humidity;BMP_temperature;BMP_pressure;BME280_temperature;BME280_humidity;BME280_pressure;Samples;Min_cycle;Max_cycle;Signal;HPM_P1;HPM_P2
2022/10/04 00:01:10;;;;;;;9.13;4.88;;;;;;;11.64;100.00;102327.50;4898360;29;20055;-81
2022/10/04 00:03:42;;;;;;;12.73;5.63;;;;;;;11.63;100.00;102324.84;4890953;29;20386;-80
2022/10/04 00:06:20;;;;;;;11.73;5.40;;;;;;;11.63;100.00;102316.94;4914212;29;20044;-82
2022/10/04 00:08:54;;;;;;;12.98;6.25;;;;;;;11.64;100.00;102321.34;4872525;29;20051;-82
2022/10/04 00:11:41;;;;;;;10.80;5.53;;;;;;;11.63;100.00;102309.00;4906922;29;20044;-82
2022/10/04 00:14:31;;;;;;;9.98;6.88;;;;;;;11.61;100.00;102313.38;4900421;29;20390;-83
2022/10/04 00:17:12;;;;;;;10.52;6.00;;;;;;;11.62;100.00;102317.78;4914661;29;20052;-82
2022/10/04 00:19:45;;;;;;;14.48;6.15;;;;;;;11.61;100.00;102306.34;4892703;29;20506;-81
2022/10/04 00:22:16;;;;;;;19.10;6.15;;;;;;;11.60;100.00;102301.91;4911920;29;20052;-83
2022/10/04 00:25:00;;;;;;;13.93;6.30;;;;;;;11.63;100.00;102306.38;4872595;29;20052;-81
2022/10/04 00:27:28;;;;;;;11.57;5.95;;;;;;;11.62;100.00;102304.56;4906936;29;20426;-82
2022/10/04 00:30:03;;;;;;;16.63;6.40;;;;;;;11.61;100.00;102303.69;4916208;29;20060;-82
2022/10/04 00:32:38;;;;;;;13.20;5.95;;;;;;;11.62;100.00;102299.28;4884934;29;20166;-81
2022/10/04 00:35:25;;;;;;;13.65;5.60;;;;;;;11.60;100.00;102303.66;4893081;29;20063;-83
2022/10/04 00:38:05;;;;;;;11.65;5.38;;;;;;;11.58;100.00;102295.69;4902413;29;20055;-82
2022/10/04 00:40:45;;;;;;;10.38;5.80;;;;;;;11.58;100.00;102292.16;4869329;29;20062;-82
2022/10/04 00:43:40;;;;;;;13.52;5.63;;;;;;;11.56;100.00;102284.22;4903951;29;20075;-82
2022/10/04 00:46:22;;;;;;;12.55;5.80;;;;;;;11.56;100.00;102272.75;4865887;29;20056;-82
2022/10/04 00:48:59;;;;;;;11.43;5.50;;;;;;;11.53;100.00;102265.69;4916571;29;20075;-82
2022/10/04 00:51:54;;;;;;;10.85;5.38;;;;;;;11.52;100.00;102270.03;4907370;29;20052;-82
2022/10/04 00:54:50;;;;;;;12.75;5.95;;;;;;;11.51;100.00;102264.72;4877905;29;20441;-82
2022/10/04 00:57:36;;;;;;;15.82;6.18;;;;;;;11.51;100.00;102259.44;4862235;29;20047;-81
2022/10/04 01:00:17;;;;;;;9.85;6.18;;;;;;;11.52;100.00;102253.31;4881053;29;20056;-82
2022/10/04 01:02:52;;;;;;;10.75;5.80;;;;;;;11.51;100.00;102262.09;4896168;29;20070;-82
2022/10/04 01:05:32;;;;;;;11.02;5.05;;;;;;;11.50;100.00;102255.94;4885584;29;20051;-81
2022/10/04 01:08:17;;;;;;;11.45;5.53;;;;;;;11.50;100.00;102255.03;4903755;29;20043;-81
2022/10/04 01:10:57;;;;;;;11.05;5.78;;;;;;;11.49;100.00;102243.59;4896723;29;20044;-81
2022/10/04 01:13:37;;;;;;;14.45;6.53;;;;;;;11.50;100.00;102242.72;4865509;29;20362;-81
2022/10/04 01:16:15;;;;;;;13.35;6.07;;;;;;;11.50;100.00;102233.94;4899575;29;20413;-83
2022/10/04 01:18:46;;;;;;;15.27;5.30;;;;;;;11.49;100.00;102230.41;4914440;29;20505;-82
2022/10/04 01:21:18;;;;;;;8.20;5.53;;;;;;;11.50;100.00;102244.47;4882316;29;20409;-82
2022/10/04 01:24:16;;;;;;;15.73;6.82;;;;;;;11.50;100.00;102233.94;4899374;29;20052;-82
2022/10/04 01:26:45;;;;;;;11.55;6.03;;;;;;;11.48;100.00;102239.16;4897493;29;20048;-81
2022/10/04 01:29:17;;;;;;;20.15;8.15;;;;;;;11.49;100.00;102230.41;4819955;29;20048;-82
2022/10/04 01:31:52;;;;;;;14.20;7.03;;;;;;;11.49;100.00;102237.41;4880821;29;20047;-81
2022/10/04 01:34:26;;;;;;;13.65;6.82;;;;;;;11.49;100.00;102230.41;4888686;29;20039;-82
2022/10/04 01:36:59;;;;;;;13.27;6.63;;;;;;;11.50;100.00;102231.28;4908276;29;20040;-81
2022/10/04 01:39:27;;;;;;;16.33;6.60;;;;;;;11.49;100.00;102222.50;4907188;29;20056;-80
2022/10/04 01:42:13;;;;;;;17.88;7.40;;;;;;;11.49;100.00;102227.75;4878935;29;20536;-80
2022/10/04 01:45:00;;;;;;;20.88;8.35;;;;;;;11.50;100.00;102220.72;4901840;29;20070;-81
2022/10/04 01:47:41;;;;;;;16.63;7.68;;;;;;;11.50;100.00;102218.09;4894102;29;20068;-81
2022/10/04 01:50:20;;;;;;;14.75;7.57;;;;;;;11.49;100.00;102214.56;4912991;29;20048;-81
2022/10/04 01:52:55;;;;;;;15.50;7.18;;;;;;;11.50;100.00;102210.16;4893639;29;20067;-80
2022/10/04 01:55:33;;;;;;;16.80;8.40;;;;;;;11.51;100.00;102211.94;4892896;29;20180;-80
2022/10/04 01:58:21;;;;;;;13.73;7.38;;;;;;;11.50;100.00;102211.06;4853229;29;20048;-81
2022/10/04 02:01:15;;;;;;;18.02;8.68;;;;;;;11.51;100.00;102202.28;4908807;29;20052;-82
2022/10/04 02:04:02;;;;;;;17.88;8.18;;;;;;;11.50;100.00;102197.84;4894160;29;21076;-80
2022/10/04 02:06:37;;;;;;;18.10;8.55;;;;;;;11.52;100.00;102190.84;4893776;29;20048;-81
2022/10/04 02:09:17;;;;;;;16.42;8.48;;;;;;;11.54;100.00;102195.28;4890631;29;20052;-81
2022/10/04 02:11:51;;;;;;;15.27;8.30;;;;;;;11.54;100.00;102182.97;4882403;29;20044;-81
2022/10/04 02:14:26;;;;;;;25.35;9.07;;;;;;;11.55;100.00;102181.22;4867654;29;20056;-82
2022/10/04 02:16:57;;;;;;;18.17;8.40;;;;;;;11.55;100.00;102182.13;4906805;29;20044;-81
2022/10/04 02:19:35;;;;;;;16.43;7.93;;;;;;;11.56;100.00;102177.72;4892919;29;20055;-82
2022/10/04 02:22:06;;;;;;;19.40;8.48;;;;;;;11.57;100.00;102171.56;4911181;29;20040;-82
2022/10/04 02:24:40;;;;;;;18.77;8.38;;;;;;;11.56;100.00;102181.25;4906226;29;20070;-82
2022/10/04 02:27:08;;;;;;;17.73;9.38;;;;;;;11.58;100.00;102187.44;4895387;29;20044;-81
2022/10/04 02:29:37;;;;;;;21.05;9.18;;;;;;;11.59;100.00;102191.00;4837924;29;20387;-81
2022/10/04 02:34:55;;;;;;;24.00;9.70;;;;;;;11.60;100.00;102179.56;4911632;29;20052;-81
2022/10/04 02:37:26;;;;;;;17.63;9.02;;;;;;;11.59;100.00;102180.44;4908718;29;20048;-81
2022/10/04 02:40:07;;;;;;;20.58;8.68;;;;;;;11.57;100.00;102169.84;4886523;29;20060;-81
2022/10/04 02:42:46;;;;;;;16.25;9.43;;;;;;;11.57;100.00;102161.94;4900038;29;20654;-80
2022/10/04 02:45:37;;;;;;;20.83;9.75;;;;;;;11.57;100.00;102166.28;4865914;29;20052;-81
2022/10/04 02:48:33;;;;;;;18.00;7.88;;;;;;;11.55;100.00;102153.09;4893453;29;20052;-80
2022/10/04 02:51:39;;;;;;;19.17;9.43;;;;;;;11.53;100.00;102152.16;4872854;29;20534;-82
2022/10/04 02:54:26;;;;;;;15.50;8.45;;;;;;;11.50;100.00;102142.41;4875425;29;20052;-82
2022/10/04 02:56:56;;;;;;;19.00;9.15;;;;;;;11.51;100.00;102143.28;4890984;29;20406;-82
2022/10/04 02:59:26;;;;;;;18.83;9.48;;;;;;;11.47;100.00;102145.00;4867497;29;20052;-81
2022/10/04 03:01:58;;;;;;;18.57;9.17;;;;;;;11.47;100.00;102138.81;4895623;29;20040;-80
2022/10/04 03:04:31;;;;;;;17.90;8.05;;;;;;;11.47;100.00;102141.47;4887461;29;20052;-80
2022/10/04 03:07:03;;;;;;;23.08;9.50;;;;;;;11.46;100.00;102130.03;4911342;29;20056;-80
2022/10/04 03:09:35;;;;;;;15.95;8.98;;;;;;;11.44;100.00;102129.09;4888687;29;20051;-81
2022/10/04 03:12:04;;;;;;;21.60;9.77;;;;;;;11.43;100.00;102123.78;4904665;29;20098;-83
2022/10/04 03:14:33;;;;;;;17.80;9.40;;;;;;;11.41;100.00;102120.22;4898587;29;20450;-81
2022/10/04 03:17:05;;;;;;;20.33;10.32;;;;;;;11.41;100.00;102113.19;4869899;29;20047;-82
2022/10/04 03:19:34;;;;;;;16.70;9.00;;;;;;;11.39;100.00;102114.91;4863949;29;20056;-82
2022/10/04 03:22:09;;;;;;;20.38;9.50;;;;;;;11.38;100.00;102114.88;4877442;29;20049;-82
2022/10/04 03:24:46;;;;;;;17.05;8.18;;;;;;;11.36;100.00;102109.59;4874932;29;20242;-82
2022/10/04 03:27:20;;;;;;;17.17;8.23;;;;;;;11.35;100.00;102120.13;4887220;29;20051;-82
2022/10/04 03:29:49;;;;;;;22.25;8.93;;;;;;;11.34;100.00;102115.69;4898310;29;20048;-81
2022/10/04 03:32:21;;;;;;;16.88;9.35;;;;;;;11.32;100.00;102105.09;4866702;29;20247;-82
2022/10/04 03:35:01;;;;;;;16.95;8.52;;;;;;;11.32;100.00;102120.91;4907632;29;20498;-81
2022/10/04 03:37:35;;;;;;;20.92;9.88;;;;;;;11.31;100.00;102113.88;4909123;29;20252;-81
2022/10/04 03:40:08;;;;;;;25.05;9.07;;;;;;;11.30;100.00;102115.63;4898784;29;20048;-80
2022/10/04 03:42:38;;;;;;;18.50;9.38;;;;;;;11.29;100.00;102110.31;4892648;29;21062;-81
2022/10/04 03:45:14;;;;;;;13.32;8.43;;;;;;;11.27;100.00;102107.66;4897020;29;20040;-81
2022/10/04 03:47:47;;;;;;;17.40;9.32;;;;;;;11.28;100.00;102111.16;4892115;29;20052;-81
2022/10/04 03:50:23;;;;;;;18.88;9.48;;;;;;;11.27;100.00;102107.66;4894425;29;20048;-81
2022/10/04 03:52:58;;;;;;;15.20;9.55;;;;;;;11.26;100.00;102111.13;4891526;29;20055;-81
2022/10/04 03:55:37;;;;;;;18.55;9.98;;;;;;;11.27;100.00;102107.66;4913284;29;20067;-81
2022/10/04 03:58:08;;;;;;;13.95;7.82;;;;;;;11.26;100.00;102105.84;4911763;29;20054;-82
2022/10/04 04:00:42;;;;;;;23.13;9.13;;;;;;;11.25;100.00;102109.38;4919685;29;20253;-82
2022/10/04 04:03:18;;;;;;;18.70;9.13;;;;;;;11.25;100.00;102109.38;4877026;29;20028;-82
2022/10/04 04:05:56;;;;;;;19.08;9.13;;;;;;;11.24;100.00;102101.41;4915054;29;20052;-82
2022/10/04 04:08:34;;;;;;;20.05;8.63;;;;;;;11.22;100.00;102093.47;4920389;29;20553;-82
2022/10/04 04:11:06;;;;;;;16.52;8.75;;;;;;;11.21;100.00;102083.78;4917663;29;20058;-82
2022/10/04 04:13:42;;;;;;;17.52;8.30;;;;;;;11.22;100.00;102085.53;4910452;29;20505;-82
2022/10/04 04:16:11;;;;;;;18.25;9.05;;;;;;;11.22;100.00;102089.94;4900116;29;20145;-83
2022/10/04 04:18:43;;;;;;;14.05;8.60;;;;;;;11.21;100.00;102086.41;4892631;29;20046;-81
2022/10/04 04:21:17;;;;;;;19.75;9.13;;;;;;;11.22;100.00;102095.22;4910015;29;20047;-80
2022/10/04 04:24:07;;;;;;;14.18;8.77;;;;;;;11.21;100.00;102089.06;4935692;29;20047;-80
2022/10/04 04:26:41;;;;;;;15.17;8.57;;;;;;;11.21;100.00;102083.78;4915959;29;20052;-80
2022/10/04 04:29:09;;;;;;;15.45;8.60;;;;;;;11.20;100.00;102076.72;4900055;29;20121;-81
2022/10/04 04:31:45;;;;;;;15.13;8.32;;;;;;;11.20;100.00;102076.72;4925398;29;20051;-81
2022/10/04 04:34:24;;;;;;;20.80;8.77;;;;;;;11.21;100.00;102070.59;4890100;29;20067;-80
2022/10/04 04:36:57;;;;;;;23.50;10.38;;;;;;;11.21;100.00;102073.22;4911386;29;20051;-81
2022/10/04 04:39:38;;;;;;;23.63;11.43;;;;;;;11.22;100.00;102066.19;4917751;29;20254;-81
2022/10/04 04:42:16;;;;;;;16.48;10.05;;;;;;;11.22;100.00;102067.06;4912390;29;20048;-81
2022/10/04 04:44:49;;;;;;;20.88;9.40;;;;;;;11.22;100.00;102061.81;4916693;29;20058;-82
2022/10/04 04:47:38;;;;;;;17.77;8.02;;;;;;;11.24;100.00;102069.75;4899819;29;20530;-81
2022/10/04 04:50:11;;;;;;;17.05;9.52;;;;;;;11.23;100.00;102060.06;4889069;29;20054;-81
2022/10/04 04:52:41;;;;;;;16.65;9.45;;;;;;;11.23;100.00;102062.72;4912906;29;20406;-81
2022/10/04 04:55:23;;;;;;;13.93;8.43;;;;;;;11.22;100.00;102061.81;4905125;29;20058;-81
2022/10/04 04:57:55;;;;;;;14.13;8.52;;;;;;;11.21;100.00;102059.13;4913008;29;20047;-80
2022/10/04 05:00:34;;;;;;;16.10;9.85;;;;;;;11.18;100.00;102059.97;4924188;29;20043;-80
2022/10/04 05:03:05;;;;;;;16.10;9.73;;;;;;;11.16;100.00;102055.53;4913969;29;20039;-80
2022/10/04 05:05:35;;;;;;;18.08;9.15;;;;;;;11.15;100.00;102064.28;4897636;29;20063;-80
2022/10/04 05:08:09;;;;;;;21.75;9.63;;;;;;;11.12;100.00;102065.13;4907159;29;20046;-81
2022/10/04 05:11:08;;;;;;;17.30;9.38;;;;;;;11.09;100.00;102059.78;4918324;29;20052;-80
2022/10/04 05:13:43;;;;;;;20.67;8.85;;;;;;;11.06;100.00;102057.97;4900161;29;20059;-80
2022/10/04 05:16:26;;;;;;;17.73;9.73;;;;;;;11.02;100.00;102055.22;4913894;29;20521;-82
2022/10/04 05:19:00;;;;;;;22.00;10.27;;;;;;;10.99;100.00;102063.09;4907321;29;20051;-78
2022/10/04 05:21:30;;;;;;;13.68;9.35;;;;;;;10.97;100.00;102062.19;4902233;29;20591;-79
2022/10/04 05:24:28;;;;;;;22.75;9.77;;;;;;;10.93;100.00;102059.47;4900058;29;20043;-79
2022/10/04 05:27:04;;;;;;;13.13;9.07;;;;;;;10.89;100.00;102059.38;4905011;29;20512;-79
2022/10/04 05:29:39;;;;;;;17.55;9.52;;;;;;;10.86;100.00;102060.19;4903745;29;20043;-79
2022/10/04 05:32:39;;;;;;;22.08;9.70;;;;;;;10.82;100.00;102055.69;4906725;29;20062;-81
2022/10/04 05:35:18;;;;;;;16.77;9.20;;;;;;;10.79;100.00;102054.75;4887199;28;20048;-79
2022/10/04 05:38:22;;;;;;;12.68;9.10;;;;;;;10.75;100.00;102056.41;4913403;29;20039;-79
2022/10/04 05:40:55;;;;;;;16.90;9.00;;;;;;;10.72;100.00;102061.66;4864959;29;20134;-79
2022/10/04 05:43:45;;;;;;;17.40;9.90;;;;;;;10.70;100.00;102055.47;4914560;29;20044;-78
2022/10/04 05:46:20;;;;;;;19.45;9.07;;;;;;;10.67;100.00;102060.66;4901513;29;20060;-80
2022/10/04 05:48:55;;;;;;;15.73;9.45;;;;;;;10.65;100.00;102050.06;4907797;29;20052;-79
2022/10/04 05:51:29;;;;;;;15.07;9.38;;;;;;;10.62;100.00;102057.00;4893217;29;20834;-78
2022/10/04 05:54:02;;;;;;;21.25;9.60;;;;;;;10.60;100.00;102050.81;4902030;29;20028;-80
2022/10/04 05:56:58;;;;;;;21.63;9.95;;;;;;;10.58;100.00;102055.16;4902211;29;20267;-79
2022/10/04 05:59:48;;;;;;;20.00;10.18;;;;;;;10.54;100.00;102055.09;4901756;29;20052;-79
2022/10/04 06:02:42;;;;;;;20.95;9.73;;;;;;;10.56;100.00;102059.53;4919766;29;20311;-80
2022/10/04 06:05:16;;;;;;;28.30;11.70;;;;;;;10.54;100.00;102063.00;4892933;29;20256;-80
2022/10/04 06:08:02;;;;;;;19.17;10.55;;;;;;;10.54;100.00;102070.03;4885545;29;20528;-80
2022/10/04 06:11:04;;;;;;;22.13;10.82;;;;;;;10.54;100.00;102068.25;4921437;29;20052;-79
2022/10/04 06:13:54;;;;;;;15.93;9.88;;;;;;;10.56;100.00;102063.03;4898326;29;20044;-81
2022/10/04 06:16:56;;;;;;;17.90;9.70;;;;;;;10.57;100.00;102069.19;4909527;29;20698;-77
2022/10/04 06:19:41;;;;;;;15.55;9.93;;;;;;;10.56;100.00;102057.75;4912087;29;20067;-78
2022/10/04 06:22:20;;;;;;;20.77;9.68;;;;;;;10.57;100.00;102054.28;4909840;29;20043;-78
2022/10/04 06:25:04;;;;;;;24.92;10.57;;;;;;;10.57;100.00;102046.38;4860857;29;20524;-78
2022/10/04 06:27:47;;;;;;;17.42;10.02;;;;;;;10.58;100.00;102042.88;4920462;29;20509;-79
2022/10/04 06:30:18;;;;;;;21.50;10.77;;;;;;;10.59;100.00;102051.69;4897744;29;20349;-79
2022/10/04 06:33:24;;;;;;;18.08;10.10;;;;;;;10.58;100.00;102040.22;4913047;29;20048;-79
2022/10/04 06:36:23;;;;;;;16.42;10.80;;;;;;;10.59;100.00;102035.88;4923268;29;20055;-81
2022/10/04 06:39:29;;;;;;;19.80;10.23;;;;;;;10.60;100.00;102035.00;4900687;29;20051;-79
2022/10/04 06:42:17;;;;;;;20.00;11.15;;;;;;;10.62;100.00;102038.56;4907450;29;20040;-78
2022/10/04 06:45:22;;;;;;;22.48;11.55;;;;;;;10.64;100.00;102042.13;4910150;29;20051;-79
2022/10/04 06:48:18;;;;;;;19.02;10.45;;;;;;;10.67;100.00;102047.47;4921862;29;20052;-79
2022/10/04 06:50:52;;;;;;;21.73;11.60;;;;;;;10.70;100.00;102058.97;4913139;29;20055;-79
2022/10/04 06:53:25;;;;;;;16.92;11.73;;;;;;;10.75;100.00;102053.78;4923888;29;20059;-80
2022/10/04 06:56:04;;;;;;;17.85;10.93;;;;;;;10.84;100.00;102061.91;4895335;28;20035;-81
2022/10/04 06:59:04;;;;;;;16.27;11.00;;;;;;;10.93;100.00;102053.31;4902821;29;20417;-80
2022/10/04 07:01:35;;;;;;;17.92;11.30;;;;;;;11.04;100.00;102048.22;4916555;28;20055;-79
2022/10/04 07:04:12;;;;;;;;;;;;;;;11.14;100.00;102049.34;4905050;29;20063;-79
2022/10/04 07:07:22;;;;;;;18.15;10.45;;;;;;;11.22;100.00;102051.25;4905721;29;19946;-79
2022/10/04 07:09:47;;;;;;;20.15;11.35;;;;;;;11.30;100.00;102049.66;4897424;29;20062;-80
2022/10/04 07:12:18;;;;;;;16.33;11.10;;;;;;;11.37;100.00;102037.47;4897284;29;20079;-80
2022/10/04 07:15:01;;;;;;;20.27;10.88;;;;;;;11.43;100.00;102029.66;4884893;29;20052;-79
2022/10/04 07:17:38;;;;;;;17.42;10.27;;;;;;;11.47;100.00;102028.88;4910107;29;20579;-80
2022/10/04 07:20:20;;;;;;;15.73;10.48;;;;;;;11.51;100.00;102022.78;4910613;29;20389;-80
2022/10/04 07:22:59;;;;;;;19.10;10.77;;;;;;;11.56;100.00;102020.22;4917488;29;20047;-79
2022/10/04 07:25:33;;;;;;;22.70;10.85;;;;;;;11.59;100.00;102019.41;4872478;29;20055;-79
2022/10/04 07:31:33;;;;;;;11.88;9.57;;;;;;;11.65;100.00;102012.44;4912220;29;20067;-79
2022/10/04 07:34:30;;;;;;;14.20;9.75;;;;;;;11.66;100.00;102013.34;4894279;29;20048;-81
2022/10/04 07:37:05;;;;;;;17.00;10.00;;;;;;;11.67;100.00;102012.50;4910827;29;20052;-80
2022/10/04 07:40:08;;;;;;;17.10;10.27;;;;;;;11.69;100.00;102018.69;4925003;29;20055;-80
2022/10/04 07:42:43;;;;;;;15.57;10.38;;;;;;;11.73;100.00;102022.25;4904733;29;20055;-80
2022/10/04 07:45:32;;;;;;;20.77;10.85;;;;;;;11.81;100.00;102026.78;4904728;29;20047;-79
2022/10/04 07:48:12;;;;;;;19.02;10.55;;;;;;;12.22;100.00;102031.91;4896903;29;20067;-80
2022/10/04 07:50:56;;;;;;;8.88;8.00;;;;;;;12.84;100.00;102031.00;4922479;29;20056;-79
2022/10/04 07:53:40;;;;;;;12.43;8.18;;;;;;;13.43;100.00;102026.41;4895784;29;20058;-79
2022/10/04 07:56:27;;;;;;;13.07;7.55;;;;;;;14.02;100.00;102031.34;4888928;29;20048;-81
2022/10/04 07:59:19;;;;;;;9.52;7.03;;;;;;;14.69;100.00;102032.72;4917903;29;20508;-80
2022/10/04 08:01:54;;;;;;;9.80;6.80;;;;;;;15.21;100.00;102024.06;4908736;29;20047;-80
2022/10/04 08:05:00;;;;;;;10.50;6.63;;;;;;;15.30;100.00;102025.88;4915805;29;20066;-79
2022/10/04 08:07:54;;;;;;;11.13;7.18;;;;;;;15.39;100.00;102031.19;4904278;29;20060;-79
2022/10/04 08:10:55;;;;;;;10.20;7.28;;;;;;;15.34;100.00;102022.31;4895835;29;20035;-79
2022/10/04 08:13:44;;;;;;;7.88;6.72;;;;;;;15.20;100.00;102022.31;4912985;29;20078;-80
2022/10/04 08:16:31;;;;;;;11.50;6.85;;;;;;;15.05;100.00;102022.22;4923778;29;20058;-80
2022/10/04 08:19:47;;;;;;;12.77;7.20;;;;;;;14.80;100.00;102020.38;4907566;29;20050;-80
2022/10/04 08:23:01;;;;;;;12.13;7.72;;;;;;;14.63;100.00;102027.38;4861092;29;20063;-80
2022/10/04 08:25:58;;;;;;;15.48;8.23;;;;;;;14.47;100.00;102030.78;4880067;29;20062;-80
2022/10/04 08:32:05;;;;;;;14.60;8.18;;;;;;;14.15;100.00;102023.50;4896104;29;20051;-80
2022/10/04 08:34:37;;;;;;;11.32;7.50;;;;;;;14.05;100.00;102035.81;4918608;29;20056;-79
2022/10/04 08:37:27;;;;;;;12.40;8.40;;;;;;;13.95;100.00;102033.94;4902040;29;20040;-80
2022/10/04 08:40:28;;;;;;;22.33;8.93;;;;;;;13.85;100.00;102032.97;4886056;29;20040;-79
2022/10/04 08:42:59;;;;;;;;;;;;;;;13.77;100.00;102042.63;4854717;29;20055;-78
2022/10/04 08:45:42;;;;;;;12.60;7.70;;;;;;;13.83;100.00;102042.69;4908073;29;20233;-80
2022/10/04 08:48:41;;;;;;;12.55;7.68;;;;;;;14.05;100.00;102027.84;4893374;29;20059;-80
2022/10/04 08:51:37;;;;;;;14.77;7.88;;;;;;;14.29;100.00;102031.53;4907560;29;20055;-81
2022/10/04 08:54:24;;;;;;;12.85;7.68;;;;;;;14.54;100.00;102027.31;4896368;29;20059;-81
2022/10/04 08:57:01;;;;;;;17.38;7.82;;;;;;;14.76;100.00;102023.91;4892639;29;20071;-81
2022/10/04 08:59:57;;;;;;;10.45;7.43;;;;;;;14.96;100.00;102018.66;4863883;29;20265;-81
2022/10/04 09:02:47;;;;;;;13.23;6.85;;;;;;;15.11;100.00;102016.97;4883353;29;20056;-80
2022/10/04 09:05:45;;;;;;;9.73;6.47;;;;;;;15.21;100.00;102014.31;4890822;29;20607;-80
2022/10/04 09:08:38;;;;;;;11.25;6.25;;;;;;;15.25;100.00;102015.22;4873223;29;20414;-80
2022/10/04 09:11:33;;;;;;;8.75;6.18;;;;;;;15.27;100.00;102025.84;4914043;29;20517;-80
2022/10/04 09:14:26;;;;;;;12.25;6.25;;;;;;;15.28;100.00;102009.91;4882644;29;20058;-80
2022/10/04 09:17:19;;;;;;;9.32;5.35;;;;;;;15.27;100.00;102012.56;4912615;29;20051;-80
2022/10/04 09:20:00;;;;;;;9.85;5.97;;;;;;;15.27;100.00;102017.88;4905080;29;20054;-80
2022/10/04 09:23:06;;;;;;;13.27;6.70;;;;;;;15.25;100.00;102009.91;4926008;29;20055;-80
2022/10/04 09:26:04;;;;;;;11.30;5.70;;;;;;;15.26;100.00;102014.34;4892995;29;20043;-80
2022/10/04 09:29:00;;;;;;;15.05;6.15;;;;;;;15.26;100.00;102009.03;4882993;29;20039;-80
2022/10/04 09:31:51;;;;;;;10.48;5.20;;;;;;;15.27;100.00;102007.25;4916673;29;20055;-80
2022/10/04 09:34:45;;;;;;;8.55;5.63;;;;;;;15.31;100.00;101996.66;4902570;29;20055;-80
2022/10/04 09:37:39;;;;;;;10.60;5.43;;;;;;;15.34;100.00;102001.09;4913583;29;20062;-80
2022/10/04 09:40:27;;;;;;;10.07;5.30;;;;;;;15.36;100.00;102001.97;4886212;29;20401;-80
2022/10/04 09:43:21;;;;;;;8.30;5.60;;;;;;;15.36;100.00;101992.22;4912886;29;20075;-80
2022/10/04 09:46:02;;;;;;;10.55;4.88;;;;;;;15.34;100.00;102001.09;4886309;29;20043;-80
2022/10/04 09:49:01;;;;;;;;;;;;;;;15.39;100.00;101994.00;4932579;29;20044;-80
2022/10/04 09:52:08;;;;;;;7.47;5.10;;;;;;;15.45;100.00;101998.44;4888118;29;19935;-80
2022/10/04 09:55:21;;;;;;;11.25;5.10;;;;;;;15.46;100.00;101989.56;4866989;29;20064;-81
2022/10/04 09:57:58;;;;;;;10.52;4.88;;;;;;;15.52;100.00;101994.88;4901462;29;20044;-81
2022/10/04 10:00:58;;;;;;;7.65;5.03;;;;;;;15.58;100.00;101979.84;4898690;29;20051;-81
2022/10/04 10:04:08;;;;;;;11.00;5.03;;;;;;;15.62;100.00;101987.84;4912357;29;20055;-81
2022/10/04 10:06:58;;;;;;;11.37;5.63;;;;;;;15.65;100.00;101985.16;4817883;29;20046;-81
2022/10/04 10:15:58;;;;;;;6.22;4.47;;;;;;;15.84;100.00;101980.75;4899651;29;20055;-80
2022/10/04 10:18:55;;;;;;;7.95;4.75;;;;;;;15.89;100.00;101976.34;4922014;29;20048;-80
2022/10/04 10:22:13;;;;;;;11.40;4.88;;;;;;;15.98;100.00;101974.56;4912673;29;20040;-81
2022/10/04 10:25:00;;;;;;;8.02;4.22;;;;;;;16.06;100.00;101961.25;4875952;29;20941;-80
2022/10/04 10:27:51;;;;;;;10.68;6.90;;;;;;;16.14;100.00;101963.88;4890013;29;20028;-79
2022/10/04 10:30:20;;;;;;;10.48;4.68;;;;;;;16.21;100.00;101957.66;4928564;29;20046;-80
2022/10/04 10:33:04;;;;;;;7.20;4.03;;;;;;;16.27;100.00;101951.44;4902524;29;20051;-80
2022/10/04 10:35:50;;;;;;;9.00;4.10;;;;;;;16.34;100.00;101948.75;4914273;29;20436;-80
2022/10/04 10:38:34;;;;;;;6.90;3.92;;;;;;;16.33;100.00;101943.44;4885891;29;20059;-79
2022/10/04 10:41:10;;;;;;;8.23;4.68;;;;;;;16.24;100.00;101932.84;4904389;29;20397;-81
2022/10/04 10:43:57;;;;;;;6.00;4.25;;;;;;;16.19;100.00;101943.50;4903397;29;20055;-79
2022/10/04 10:46:57;;;;;;;7.35;3.90;;;;;;;16.12;100.00;101945.31;4874661;29;20039;-80
2022/10/04 10:49:32;;;;;;;10.87;5.10;;;;;;;16.10;100.00;101952.38;4898697;29;20516;-79
2022/10/04 10:52:28;;;;;;;6.07;3.92;;;;;;;16.07;100.00;101944.41;4898210;29;20520;-79
2022/10/04 10:54:59;;;;;;;9.82;4.28;;;;;;;16.07;100.00;101938.22;4905902;29;20048;-79
2022/10/04 10:57:50;;;;;;;7.65;4.07;;;;;;;16.06;100.00;101944.41;4926342;29;20048;-80
2022/10/04 11:00:21;;;;;;;7.53;4.15;;;;;;;16.08;100.00;101947.94;4888512;29;20048;-80
2022/10/04 11:03:17;;;;;;;7.90;4.10;;;;;;;16.05;100.00;101945.28;4880656;29;20052;-79
2022/10/04 11:06:18;;;;;;;7.97;3.65;;;;;;;16.00;100.00;101945.31;4889455;29;20067;-80
2022/10/04 11:09:24;;;;;;;6.45;3.42;;;;;;;16.00;100.00;101949.75;4894682;29;20494;-80
2022/10/04 11:12:03;;;;;;;9.63;3.80;;;;;;;16.01;100.00;101951.50;4917322;29;20071;-81
2022/10/04 11:14:37;;;;;;;7.38;4.00;;;;;;;16.05;100.00;101948.84;4903018;29;20175;-80
2022/10/04 11:17:27;;;;;;;7.82;3.92;;;;;;;16.11;100.00;101943.53;4894575;29;20391;-78
2022/10/04 11:20:14;;;;;;;8.20;3.70;;;;;;;16.17;100.00;101930.19;4863753;29;20176;-80
2022/10/04 11:23:15;;;;;;;6.15;3.85;;;;;;;16.15;100.00;101933.75;4892224;29;20506;-81
2022/10/04 11:25:55;;;;;;;;;;;;;;;16.11;100.00;101926.69;4880628;29;20514;-80
2022/10/04 11:28:45;;;;;;;6.73;3.80;;;;;;;16.14;100.00;101916.03;4906098;29;20443;-81
2022/10/04 11:31:23;;;;;;;7.15;3.40;;;;;;;16.18;100.00;101909.81;4899054;29;20037;-81
2022/10/04 11:34:18;;;;;;;5.63;3.10;;;;;;;16.25;100.00;101908.91;4877999;29;20492;-80
2022/10/04 11:37:15;;;;;;;7.05;3.40;;;;;;;16.35;100.00;101905.34;4884360;29;20486;-80
2022/10/04 11:40:11;;;;;;;8.18;3.45;;;;;;;16.47;100.00;101903.50;4883333;29;20059;-80
2022/10/04 11:43:05;;;;;;;5.28;3.45;;;;;;;16.56;100.00;101893.72;4887484;29;20062;-80
2022/10/04 11:45:53;;;;;;;10.05;3.15;;;;;;;16.65;100.00;101895.41;4896657;29;20043;-80
2022/10/04 11:48:34;;;;;;;7.18;3.03;;;;;;;16.73;100.00;101884.75;4892038;29;20051;-80
2022/10/04 11:51:18;;;;;;;6.75;3.22;;;;;;;16.76;100.00;101885.59;4888002;29;20056;-80
2022/10/04 11:53:55;;;;;;;6.13;3.85;;;;;;;16.80;100.00;101878.47;4911321;29;20048;-80
2022/10/04 11:56:29;;;;;;;8.80;3.63;;;;;;;16.85;100.00;101881.16;4885375;29;20224;-80
2022/10/04 11:58:57;;;;;;;6.10;2.88;;;;;;;16.88;100.00;101873.13;4893415;29;20048;-79
2022/10/04 12:01:31;;;;;;;4.38;2.67;;;;;;;16.92;100.00;101882.91;4884586;29;20561;-80
2022/10/04 12:04:19;;;;;;;8.07;3.55;;;;;;;16.94;100.00;101879.31;4862022;29;20051;-80
2022/10/04 12:07:25;;;;;;;4.22;2.63;;;;;;;16.99;100.00;101875.72;4863395;29;20060;-82
2022/10/04 12:10:18;;;;;;;6.60;3.20;;;;;;;16.99;100.00;101868.63;4890764;29;20087;-82
2022/10/04 12:13:09;;;;;;;5.38;2.70;;;;;;;17.04;100.00;101871.25;4868421;29;20041;-80
2022/10/04 12:16:15;;;;;;;6.32;2.90;;;;;;;17.10;100.00;101869.44;4862925;29;20048;-80
2022/10/04 12:18:54;;;;;;;7.05;2.88;;;;;;;17.18;100.00;101868.50;4860705;29;20491;-80
2022/10/04 12:21:44;;;;;;;4.78;2.75;;;;;;;17.24;100.00;101847.13;4848574;29;20731;-80
2022/10/04 12:24:38;;;;;;;4.97;2.75;;;;;;;17.24;100.00;101850.69;4869210;29;20498;-81
2022/10/04 12:27:25;;;;;;;3.50;2.58;;;;;;;17.25;100.00;101855.09;4870636;29;20051;-80
2022/10/04 12:30:13;;;;;;;4.75;2.67;;;;;;;17.28;100.00;101851.56;4856077;29;20052;-80
2022/10/04 12:32:56;;;;;;;5.93;2.75;;;;;;;17.24;100.00;101850.69;4886346;29;20079;-80
2022/10/04 12:35:35;;;;;;;5.47;3.13;;;;;;;17.25;100.00;101846.25;4862630;29;20697;-81
2022/10/04 12:38:22;;;;;;;6.68;4.00;;;;;;;17.24;100.00;101849.78;4864567;29;20494;-81
2022/10/04 12:41:20;;;;;;;6.47;2.90;;;;;;;17.26;100.00;101829.38;4878858;29;20049;-81